sensor_id;sensor_type;location;lat;lon;timestamp;P1;durP1;ratioP1;P2;durP2;ratioP2
2486;SDS011;1254;49.144;8.212;2024-02-26T00:01:44;8.52;;;7.93;;
2486;SDS011;1254;49.144;8.212;2024-02-26T00:04:12;7.90;;;7.60;;
2486;SDS011;1254;49.144;8.212;2024-02-26T00:06:41;7.53;;;7.22;;
2486;SDS011;1254;49.144;8.212;2024-02-26T00:09:09;7.95;;;7.65;;
2486;SDS011;1254;49.144;8.212;2024-02-26T00:11:39;7.38;;;7.07;;
2486;SDS011;1254;49.144;8.212;2024-02-26T00:14:07;7.72;;;7.32;;
2486;SDS011;1254;49.144;8.212;2024-02-26T00:16:35;8.10;;;7.65;;
2486;SDS011;1254;49.144;8.212;2024-02-26T00:19:03;8.07;;;7.70;;
2486;SDS011;1254;49.144;8.212;2024-02-26T00:21:32;8.38;;;7.78;;
2486;SDS011;1254;49.144;8.212;2024-02-26T00:24:00;7.88;;;7.47;;
2486;SDS011;1254;49.144;8.212;2024-02-26T00:26:28;10.50;;;9.55;;
2486;SDS011;1254;49.144;8.212;2024-02-26T00:28:58;8.13;;;7.63;;
2486;SDS011;1254;49.144;8.212;2024-02-26T00:31:26;8.48;;;7.85;;
2486;SDS011;1254;49.144;8.212;2024-02-26T00:33:54;8.40;;;7.57;;
2486;SDS011;1254;49.144;8.212;2024-02-26T00:36:23;14.40;;;10.10;;
2486;SDS011;1254;49.144;8.212;2024-02-26T00:38:51;7.30;;;6.90;;
2486;SDS011;1254;49.144;8.212;2024-02-26T00:41:19;6.95;;;6.53;;
2486;SDS011;1254;49.144;8.212;2024-02-26T00:43:48;6.78;;;6.25;;
2486;SDS011;1254;49.144;8.212;2024-02-26T00:46:18;5.93;;;5.60;;
2486;SDS011;1254;49.144;8.212;2024-02-26T00:48:46;6.30;;;5.80;;
2486;SDS011;1254;49.144;8.212;2024-02-26T00:51:14;6.68;;;6.18;;
2486;SDS011;1254;49.144;8.212;2024-02-26T00:53:42;7.93;;;7.25;;
2486;SDS011;1254;49.144;8.212;2024-02-26T00:56:10;6.63;;;6.22;;
2486;SDS011;1254;49.144;8.212;2024-02-26T00:58:39;11.05;;;9.00;;
2486;SDS011;1254;49.144;8.212;2024-02-26T01:01:07;10.18;;;7.60;;
2486;SDS011;1254;49.144;8.212;2024-02-26T01:03:37;7.82;;;7.13;;
2486;SDS011;1254;49.144;8.212;2024-02-26T01:06:05;6.18;;;5.75;;
2486;SDS011;1254;49.144;8.212;2024-02-26T01:08:33;6.72;;;5.47;;
2486;SDS011;1254;49.144;8.212;2024-02-26T01:11:03;5.40;;;5.00;;
2486;SDS011;1254;49.144;8.212;2024-02-26T01:13:32;6.72;;;6.13;;
2486;SDS011;1254;49.144;8.212;2024-02-26T01:16:00;5.32;;;4.90;;
2486;SDS011;1254;49.144;8.212;2024-02-26T01:18:28;5.80;;;5.28;;
2486;SDS011;1254;49.144;8.212;2024-02-26T01:20:58;4.82;;;4.53;;
2486;SDS011;1254;49.144;8.212;2024-02-26T01:23:26;5.43;;;4.97;;
2486;SDS011;1254;49.144;8.212;2024-02-26T01:25:55;4.43;;;4.18;;
2486;SDS011;1254;49.144;8.212;2024-02-26T01:28:23;4.35;;;4.10;;
2486;SDS011;1254;49.144;8.212;2024-02-26T01:30:51;3.90;;;3.70;;
2486;SDS011;1254;49.144;8.212;2024-02-26T01:33:20;5.30;;;4.85;;
2486;SDS011;1254;49.144;8.212;2024-02-26T01:35:48;4.85;;;4.55;;
2486;SDS011;1254;49.144;8.212;2024-02-26T01:38:18;6.45;;;5.53;;
2486;SDS011;1254;49.144;8.212;2024-02-26T01:40:46;5.72;;;5.28;;
2486;SDS011;1254;49.144;8.212;2024-02-26T01:43:14;5.47;;;5.07;;
2486;SDS011;1254;49.144;8.212;2024-02-26T01:45:43;4.47;;;4.07;;
2486;SDS011;1254;49.144;8.212;2024-02-26T01:48:11;4.97;;;4.57;;
2486;SDS011;1254;49.144;8.212;2024-02-26T01:50:39;5.28;;;4.78;;
2486;SDS011;1254;49.144;8.212;2024-02-26T01:53:08;7.75;;;4.72;;
2486;SDS011;1254;49.144;8.212;2024-02-26T01:55:38;5.32;;;4.82;;
2486;SDS011;1254;49.144;8.212;2024-02-26T01:58:07;5.60;;;5.00;;
2486;SDS011;1254;49.144;8.212;2024-02-26T02:00:35;4.05;;;3.75;;
2486;SDS011;1254;49.144;8.212;2024-02-26T02:03:04;5.30;;;4.53;;
2486;SDS011;1254;49.144;8.212;2024-02-26T02:05:32;7.05;;;5.75;;
2486;SDS011;1254;49.144;8.212;2024-02-26T02:08:01;5.05;;;4.53;;
2486;SDS011;1254;49.144;8.212;2024-02-26T02:10:31;4.78;;;4.38;;
2486;SDS011;1254;49.144;8.212;2024-02-26T02:13:00;4.57;;;3.45;;
2486;SDS011;1254;49.144;8.212;2024-02-26T02:15:29;4.05;;;3.50;;
2486;SDS011;1254;49.144;8.212;2024-02-26T02:17:57;3.60;;;3.30;;
2486;SDS011;1254;49.144;8.212;2024-02-26T02:20:27;3.33;;;3.03;;
2486;SDS011;1254;49.144;8.212;2024-02-26T02:23:00;5.70;;;4.03;;
2486;SDS011;1254;49.144;8.212;2024-02-26T02:25:28;4.78;;;4.10;;
2486;SDS011;1254;49.144;8.212;2024-02-26T02:27:56;10.55;;;4.20;;
2486;SDS011;1254;49.144;8.212;2024-02-26T02:30:26;5.80;;;4.00;;
2486;SDS011;1254;49.144;8.212;2024-02-26T02:32:55;4.10;;;3.80;;
2486;SDS011;1254;49.144;8.212;2024-02-26T02:35:26;4.43;;;4.03;;
2486;SDS011;1254;49.144;8.212;2024-02-26T02:37:55;3.90;;;3.60;;
2486;SDS011;1254;49.144;8.212;2024-02-26T02:40:24;3.30;;;3.00;;
2486;SDS011;1254;49.144;8.212;2024-02-26T02:42:52;2.97;;;2.78;;
2486;SDS011;1254;49.144;8.212;2024-02-26T02:45:20;3.45;;;2.80;;
2486;SDS011;1254;49.144;8.212;2024-02-26T02:47:48;4.82;;;4.32;;
2486;SDS011;1254;49.144;8.212;2024-02-26T02:50:17;5.90;;;4.70;;
2486;SDS011;1254;49.144;8.212;2024-02-26T02:52:46;5.70;;;3.92;;
2486;SDS011;1254;49.144;8.212;2024-02-26T02:55:16;3.15;;;2.90;;
2486;SDS011;1254;49.144;8.212;2024-02-26T02:57:44;5.10;;;3.10;;
2486;SDS011;1254;49.144;8.212;2024-02-26T03:00:12;2.33;;;2.22;;
2486;SDS011;1254;49.144;8.212;2024-02-26T03:02:41;2.10;;;1.95;;
2486;SDS011;1254;49.144;8.212;2024-02-26T03:05:11;4.95;;;3.13;;
2486;SDS011;1254;49.144;8.212;2024-02-26T03:07:39;3.28;;;2.80;;
2486;SDS011;1254;49.144;8.212;2024-02-26T03:10:09;2.85;;;2.65;;
2486;SDS011;1254;49.144;8.212;2024-02-26T03:12:37;2.95;;;1.98;;
2486;SDS011;1254;49.144;8.212;2024-02-26T03:15:06;2.15;;;2.05;;
2486;SDS011;1254;49.144;8.212;2024-02-26T03:17:34;6.97;;;2.45;;
2486;SDS011;1254;49.144;8.212;2024-02-26T03:20:04;2.10;;;2.00;;
2486;SDS011;1254;49.144;8.212;2024-02-26T03:22:34;2.20;;;2.10;;
2486;SDS011;1254;49.144;8.212;2024-02-26T03:25:03;4.70;;;3.20;;
2486;SDS011;1254;49.144;8.212;2024-02-26T03:27:33;2.10;;;2.00;;
2486;SDS011;1254;49.144;8.212;2024-02-26T03:30:01;3.50;;;2.67;;
2486;SDS011;1254;49.144;8.212;2024-02-26T03:32:30;3.08;;;2.20;;
2486;SDS011;1254;49.144;8.212;2024-02-26T03:34:58;11.25;;;3.88;;
2486;SDS011;1254;49.144;8.212;2024-02-26T03:37:26;4.55;;;3.45;;
2486;SDS011;1254;49.144;8.212;2024-02-26T03:39:54;6.80;;;3.30;;
2486;SDS011;1254;49.144;8.212;2024-02-26T03:42:24;5.53;;;2.67;;
2486;SDS011;1254;49.144;8.212;2024-02-26T03:44:53;3.08;;;2.03;;
2486;SDS011;1254;49.144;8.212;2024-02-26T03:47:21;2.05;;;1.95;;
2486;SDS011;1254;49.144;8.212;2024-02-26T03:49:50;2.05;;;1.80;;
2486;SDS011;1254;49.144;8.212;2024-02-26T03:52:18;2.22;;;2.13;;
2486;SDS011;1254;49.144;8.212;2024-02-26T03:54:46;2.65;;;2.45;;
2486;SDS011;1254;49.144;8.212;2024-02-26T03:57:14;2.67;;;2.47;;
2486;SDS011;1254;49.144;8.212;2024-02-26T03:59:42;2.85;;;1.73;;
2486;SDS011;1254;49.144;8.212;2024-02-26T04:02:12;2.53;;;1.63;;
2486;SDS011;1254;49.144;8.212;2024-02-26T04:04:41;1.80;;;1.70;;
2486;SDS011;1254;49.144;8.212;2024-02-26T04:07:09;1.98;;;1.88;;
2486;SDS011;1254;49.144;8.212;2024-02-26T04:09:38;2.15;;;1.13;;
2486;SDS011;1254;49.144;8.212;2024-02-26T04:12:06;1.50;;;1.40;;
2486;SDS011;1254;49.144;8.212;2024-02-26T04:14:35;4.88;;;3.00;;
2486;SDS011;1254;49.144;8.212;2024-02-26T04:17:03;1.77;;;1.60;;
2486;SDS011;1254;49.144;8.212;2024-02-26T04:19:39;2.17;;;1.90;;
2486;SDS011;1254;49.144;8.212;2024-02-26T04:22:07;2.42;;;1.75;;
2486;SDS011;1254;49.144;8.212;2024-02-26T04:24:36;3.88;;;2.50;;
2486;SDS011;1254;49.144;8.212;2024-02-26T04:27:04;4.07;;;2.50;;
2486;SDS011;1254;49.144;8.212;2024-02-26T04:29:32;3.83;;;2.25;;
2486;SDS011;1254;49.144;8.212;2024-02-26T04:32:00;6.22;;;2.92;;
2486;SDS011;1254;49.144;8.212;2024-02-26T04:34:29;6.50;;;2.88;;
2486;SDS011;1254;49.144;8.212;2024-02-26T04:37:00;2.88;;;2.13;;
2486;SDS011;1254;49.144;8.212;2024-02-26T04:39:28;2.88;;;1.98;;
2486;SDS011;1254;49.144;8.212;2024-02-26T04:41:57;5.38;;;2.55;;
2486;SDS011;1254;49.144;8.212;2024-02-26T04:44:25;3.65;;;2.80;;
2486;SDS011;1254;49.144;8.212;2024-02-26T04:46:53;3.42;;;2.63;;
2486;SDS011;1254;49.144;8.212;2024-02-26T04:49:22;3.88;;;2.65;;
2486;SDS011;1254;49.144;8.212;2024-02-26T04:51:50;3.38;;;2.00;;
2486;SDS011;1254;49.144;8.212;2024-02-26T04:54:20;4.30;;;2.10;;
2486;SDS011;1254;49.144;8.212;2024-02-26T04:56:48;2.45;;;1.65;;
2486;SDS011;1254;49.144;8.212;2024-02-26T04:59:17;1.80;;;1.40;;
2486;SDS011;1254;49.144;8.212;2024-02-26T05:01:45;2.70;;;1.60;;
2486;SDS011;1254;49.144;8.212;2024-02-26T05:04:14;1.90;;;1.80;;
2486;SDS011;1254;49.144;8.212;2024-02-26T05:06:43;2.28;;;1.88;;
2486;SDS011;1254;49.144;8.212;2024-02-26T05:09:11;8.13;;;2.50;;
2486;SDS011;1254;49.144;8.212;2024-02-26T05:11:41;2.92;;;2.72;;
2486;SDS011;1254;49.144;8.212;2024-02-26T05:14:09;1.70;;;1.58;;
2486;SDS011;1254;49.144;8.212;2024-02-26T05:16:37;2.70;;;1.60;;
2486;SDS011;1254;49.144;8.212;2024-02-26T05:19:05;2.83;;;1.58;;
2486;SDS011;1254;49.144;8.212;2024-02-26T05:21:37;2.20;;;2.00;;
2486;SDS011;1254;49.144;8.212;2024-02-26T05:24:22;1.70;;;1.30;;
2486;SDS011;1254;49.144;8.212;2024-02-26T05:26:53;2.20;;;2.00;;
2486;SDS011;1254;49.144;8.212;2024-02-26T05:29:21;1.30;;;1.10;;
2486;SDS011;1254;49.144;8.212;2024-02-26T05:31:50;1.40;;;1.30;;
2486;SDS011;1254;49.144;8.212;2024-02-26T05:34:20;2.08;;;1.98;;
2486;SDS011;1254;49.144;8.212;2024-02-26T05:36:49;2.08;;;1.85;;
2486;SDS011;1254;49.144;8.212;2024-02-26T05:39:17;2.80;;;2.60;;
2486;SDS011;1254;49.144;8.212;2024-02-26T05:41:46;3.10;;;2.80;;
2486;SDS011;1254;49.144;8.212;2024-02-26T05:44:17;2.97;;;2.78;;
2486;SDS011;1254;49.144;8.212;2024-02-26T05:46:45;4.07;;;3.78;;
2486;SDS011;1254;49.144;8.212;2024-02-26T05:49:13;3.60;;;2.92;;
2486;SDS011;1254;49.144;8.212;2024-02-26T05:51:41;4.82;;;4.50;;
2486;SDS011;1254;49.144;8.212;2024-02-26T05:54:09;10.57;;;5.50;;
2486;SDS011;1254;49.144;8.212;2024-02-26T05:56:38;5.20;;;4.20;;
2486;SDS011;1254;49.144;8.212;2024-02-26T05:59:06;5.10;;;4.50;;
2486;SDS011;1254;49.144;8.212;2024-02-26T06:01:36;4.75;;;4.45;;
2486;SDS011;1254;49.144;8.212;2024-02-26T06:04:04;6.30;;;5.70;;
2486;SDS011;1254;49.144;8.212;2024-02-26T06:06:33;5.65;;;5.15;;
2486;SDS011;1254;49.144;8.212;2024-02-26T06:09:01;4.60;;;4.20;;
2486;SDS011;1254;49.144;8.212;2024-02-26T06:11:31;3.10;;;2.90;;
2486;SDS011;1254;49.144;8.212;2024-02-26T06:13:59;2.00;;;1.90;;
2486;SDS011;1254;49.144;8.212;2024-02-26T06:16:27;1.70;;;1.60;;
2486;SDS011;1254;49.144;8.212;2024-02-26T06:18:57;2.25;;;2.05;;
2486;SDS011;1254;49.144;8.212;2024-02-26T06:21:26;3.70;;;1.70;;
2486;SDS011;1254;49.144;8.212;2024-02-26T06:23:54;1.42;;;1.33;;
2486;SDS011;1254;49.144;8.212;2024-02-26T06:26:22;1.52;;;1.42;;
2486;SDS011;1254;49.144;8.212;2024-02-26T06:28:54;4.78;;;1.95;;
2486;SDS011;1254;49.144;8.212;2024-02-26T06:31:23;3.72;;;2.65;;
2486;SDS011;1254;49.144;8.212;2024-02-26T06:33:53;6.28;;;2.20;;
2486;SDS011;1254;49.144;8.212;2024-02-26T06:36:23;2.70;;;2.28;;
2486;SDS011;1254;49.144;8.212;2024-02-26T06:38:52;2.50;;;2.30;;
2486;SDS011;1254;49.144;8.212;2024-02-26T06:41:20;2.97;;;2.80;;
2486;SDS011;1254;49.144;8.212;2024-02-26T06:43:53;3.60;;;3.30;;
2486;SDS011;1254;49.144;8.212;2024-02-26T06:46:22;2.55;;;2.35;;
2486;SDS011;1254;49.144;8.212;2024-02-26T06:48:52;5.03;;;3.33;;
2486;SDS011;1254;49.144;8.212;2024-02-26T06:51:20;7.00;;;5.20;;
2486;SDS011;1254;49.144;8.212;2024-02-26T06:53:50;4.32;;;3.92;;
2486;SDS011;1254;49.144;8.212;2024-02-26T06:56:18;4.60;;;3.60;;
2486;SDS011;1254;49.144;8.212;2024-02-26T06:58:47;3.67;;;3.10;;
2486;SDS011;1254;49.144;8.212;2024-02-26T07:01:15;2.95;;;2.40;;
2486;SDS011;1254;49.144;8.212;2024-02-26T07:03:43;3.67;;;3.25;;
2486;SDS011;1254;49.144;8.212;2024-02-26T07:06:12;4.03;;;3.25;;
2486;SDS011;1254;49.144;8.212;2024-02-26T07:08:40;2.80;;;2.60;;
2486;SDS011;1254;49.144;8.212;2024-02-26T07:11:11;3.13;;;2.67;;
2486;SDS011;1254;49.144;8.212;2024-02-26T07:13:40;3.10;;;2.80;;
2486;SDS011;1254;49.144;8.212;2024-02-26T07:16:08;3.75;;;2.63;;
2486;SDS011;1254;49.144;8.212;2024-02-26T07:18:37;2.70;;;2.50;;
2486;SDS011;1254;49.144;8.212;2024-02-26T07:21:05;5.15;;;4.05;;
2486;SDS011;1254;49.144;8.212;2024-02-26T07:23:34;5.95;;;5.45;;
2486;SDS011;1254;49.144;8.212;2024-02-26T07:26:05;4.55;;;4.15;;
2486;SDS011;1254;49.144;8.212;2024-02-26T07:28:43;3.47;;;2.95;;
2486;SDS011;1254;49.144;8.212;2024-02-26T07:31:11;2.80;;;2.60;;
2486;SDS011;1254;49.144;8.212;2024-02-26T07:33:40;4.32;;;2.30;;
2486;SDS011;1254;49.144;8.212;2024-02-26T07:36:08;4.38;;;3.05;;
2486;SDS011;1254;49.144;8.212;2024-02-26T07:38:36;2.08;;;1.98;;
2486;SDS011;1254;49.144;8.212;2024-02-26T07:41:05;3.95;;;2.35;;
2486;SDS011;1254;49.144;8.212;2024-02-26T07:43:33;4.20;;;2.72;;
2486;SDS011;1254;49.144;8.212;2024-02-26T07:46:03;2.85;;;2.65;;
2486;SDS011;1254;49.144;8.212;2024-02-26T07:48:32;2.40;;;2.20;;
2486;SDS011;1254;49.144;8.212;2024-02-26T07:51:00;2.40;;;2.20;;
2486;SDS011;1254;49.144;8.212;2024-02-26T07:53:32;3.40;;;2.25;;
2486;SDS011;1254;49.144;8.212;2024-02-26T07:56:01;2.83;;;2.63;;
2486;SDS011;1254;49.144;8.212;2024-02-26T07:58:30;2.95;;;2.75;;
2486;SDS011;1254;49.144;8.212;2024-02-26T08:00:57;2.80;;;2.60;;
2486;SDS011;1254;49.144;8.212;2024-02-26T08:03:27;3.92;;;2.58;;
2486;SDS011;1254;49.144;8.212;2024-02-26T08:05:56;4.40;;;2.60;;
2486;SDS011;1254;49.144;8.212;2024-02-26T08:08:24;2.80;;;2.60;;
2486;SDS011;1254;49.144;8.212;2024-02-26T08:10:52;2.17;;;1.98;;
2486;SDS011;1254;49.144;8.212;2024-02-26T08:13:21;2.00;;;1.90;;
2486;SDS011;1254;49.144;8.212;2024-02-26T08:15:49;2.60;;;2.40;;
2486;SDS011;1254;49.144;8.212;2024-02-26T08:18:18;2.60;;;2.40;;
2486;SDS011;1254;49.144;8.212;2024-02-26T08:20:47;3.38;;;1.85;;
2486;SDS011;1254;49.144;8.212;2024-02-26T08:23:16;1.80;;;1.70;;
2486;SDS011;1254;49.144;8.212;2024-02-26T08:25:44;2.60;;;2.40;;
2486;SDS011;1254;49.144;8.212;2024-02-26T08:28:14;2.30;;;2.10;;
2486;SDS011;1254;49.144;8.212;2024-02-26T08:30:44;2.75;;;2.38;;
2486;SDS011;1254;49.144;8.212;2024-02-26T08:33:13;2.83;;;2.63;;
2486;SDS011;1254;49.144;8.212;2024-02-26T08:35:42;3.20;;;2.90;;
2486;SDS011;1254;49.144;8.212;2024-02-26T08:38:12;2.70;;;2.55;;
2486;SDS011;1254;49.144;8.212;2024-02-26T08:40:40;3.20;;;2.97;;
2486;SDS011;1254;49.144;8.212;2024-02-26T08:43:09;2.97;;;2.30;;
2486;SDS011;1254;49.144;8.212;2024-02-26T08:45:37;2.85;;;2.65;;
2486;SDS011;1254;49.144;8.212;2024-02-26T08:48:06;2.15;;;2.05;;
2486;SDS011;1254;49.144;8.212;2024-02-26T08:50:34;2.65;;;2.50;;
2486;SDS011;1254;49.144;8.212;2024-02-26T08:53:03;2.30;;;2.10;;
2486;SDS011;1254;49.144;8.212;2024-02-26T08:55:33;3.22;;;2.28;;
2486;SDS011;1254;49.144;8.212;2024-02-26T08:58:01;3.30;;;3.00;;
2486;SDS011;1254;49.144;8.212;2024-02-26T09:00:30;3.13;;;2.92;;
2486;SDS011;1254;49.144;8.212;2024-02-26T09:02:58;3.03;;;2.83;;
2486;SDS011;1254;49.144;8.212;2024-02-26T09:05:26;4.85;;;4.18;;
2486;SDS011;1254;49.144;8.212;2024-02-26T09:07:55;3.53;;;3.30;;
2486;SDS011;1254;49.144;8.212;2024-02-26T09:10:23;3.63;;;3.20;;
2486;SDS011;1254;49.144;8.212;2024-02-26T09:12:56;5.78;;;2.80;;
2486;SDS011;1254;49.144;8.212;2024-02-26T09:15:27;3.45;;;3.15;;
2486;SDS011;1254;49.144;8.212;2024-02-26T09:17:56;3.60;;;3.30;;
2486;SDS011;1254;49.144;8.212;2024-02-26T09:23:16;3.38;;;3.08;;
2486;SDS011;1254;49.144;8.212;2024-02-26T09:25:45;3.00;;;2.70;;
2486;SDS011;1254;49.144;8.212;2024-02-26T09:28:15;3.85;;;3.50;;
2486;SDS011;1254;49.144;8.212;2024-02-26T09:30:44;5.90;;;4.85;;
2486;SDS011;1254;49.144;8.212;2024-02-26T09:33:14;4.53;;;3.47;;
2486;SDS011;1254;49.144;8.212;2024-02-26T09:35:43;3.17;;;2.88;;
2486;SDS011;1254;49.144;8.212;2024-02-26T09:38:12;3.13;;;2.93;;
2486;SDS011;1254;49.144;8.212;2024-02-26T09:40:41;9.07;;;6.50;;
2486;SDS011;1254;49.144;8.212;2024-02-26T09:43:10;3.53;;;3.25;;
2486;SDS011;1254;49.144;8.212;2024-02-26T09:45:43;3.45;;;2.75;;
2486;SDS011;1254;49.144;8.212;2024-02-26T09:48:11;4.83;;;3.73;;
2486;SDS011;1254;49.144;8.212;2024-02-26T09:50:40;4.10;;;3.70;;
2486;SDS011;1254;49.144;8.212;2024-02-26T09:53:09;2.37;;;1.70;;
2486;SDS011;1254;49.144;8.212;2024-02-26T09:55:38;2.83;;;2.63;;
2486;SDS011;1254;49.144;8.212;2024-02-26T09:58:06;5.60;;;2.47;;
2486;SDS011;1254;49.144;8.212;2024-02-26T10:00:36;2.10;;;2.00;;
2486;SDS011;1254;49.144;8.212;2024-02-26T10:03:07;2.90;;;2.60;;
2486;SDS011;1254;49.144;8.212;2024-02-26T10:05:38;2.40;;;2.30;;
2486;SDS011;1254;49.144;8.212;2024-02-26T10:08:07;3.30;;;3.00;;
2486;SDS011;1254;49.144;8.212;2024-02-26T10:10:36;2.97;;;2.77;;
2486;SDS011;1254;49.144;8.212;2024-02-26T10:13:05;3.23;;;2.93;;
2486;SDS011;1254;49.144;8.212;2024-02-26T10:15:36;3.03;;;2.80;;
2486;SDS011;1254;49.144;8.212;2024-02-26T10:18:04;2.70;;;2.50;;
2486;SDS011;1254;49.144;8.212;2024-02-26T10:20:34;2.70;;;2.60;;
2486;SDS011;1254;49.144;8.212;2024-02-26T10:23:03;2.20;;;2.10;;
2486;SDS011;1254;49.144;8.212;2024-02-26T10:25:32;2.40;;;2.20;;
2486;SDS011;1254;49.144;8.212;2024-02-26T10:28:00;2.38;;;2.17;;
2486;SDS011;1254;49.144;8.212;2024-02-26T10:30:30;2.80;;;2.60;;
2486;SDS011;1254;49.144;8.212;2024-02-26T10:32:59;2.80;;;1.90;;
2486;SDS011;1254;49.144;8.212;2024-02-26T10:35:28;2.30;;;2.10;;
2486;SDS011;1254;49.144;8.212;2024-02-26T10:37:58;3.57;;;2.60;;
2486;SDS011;1254;49.144;8.212;2024-02-26T10:40:28;1.93;;;1.83;;
2486;SDS011;1254;49.144;8.212;2024-02-26T10:42:57;2.53;;;2.33;;
2486;SDS011;1254;49.144;8.212;2024-02-26T10:45:27;2.30;;;2.10;;
2486;SDS011;1254;49.144;8.212;2024-02-26T10:47:58;2.63;;;2.53;;
2486;SDS011;1254;49.144;8.212;2024-02-26T10:50:26;3.50;;;2.60;;
2486;SDS011;1254;49.144;8.212;2024-02-26T10:52:54;2.77;;;2.57;;
2486;SDS011;1254;49.144;8.212;2024-02-26T10:55:25;2.50;;;2.37;;
2486;SDS011;1254;49.144;8.212;2024-02-26T10:57:54;2.40;;;2.30;;
2486;SDS011;1254;49.144;8.212;2024-02-26T11:00:24;2.20;;;2.10;;
2486;SDS011;1254;49.144;8.212;2024-02-26T11:02:54;4.27;;;3.97;;
2486;SDS011;1254;49.144;8.212;2024-02-26T11:05:24;3.57;;;3.37;;
2486;SDS011;1254;49.144;8.212;2024-02-26T11:07:53;5.43;;;2.90;;
2486;SDS011;1254;49.144;8.212;2024-02-26T11:10:21;3.20;;;2.50;;
2486;SDS011;1254;49.144;8.212;2024-02-26T11:12:52;3.20;;;3.00;;
2486;SDS011;1254;49.144;8.212;2024-02-26T11:15:35;4.07;;;3.23;;
2486;SDS011;1254;49.144;8.212;2024-02-26T11:18:12;3.27;;;3.07;;
2486;SDS011;1254;49.144;8.212;2024-02-26T11:20:41;3.23;;;3.03;;
2486;SDS011;1254;49.144;8.212;2024-02-26T11:23:11;5.00;;;3.10;;
2486;SDS011;1254;49.144;8.212;2024-02-26T11:25:46;4.10;;;3.87;;
2486;SDS011;1254;49.144;8.212;2024-02-26T11:28:17;4.97;;;4.53;;
2486;SDS011;1254;49.144;8.212;2024-02-26T11:30:46;5.07;;;4.77;;
2486;SDS011;1254;49.144;8.212;2024-02-26T11:33:15;4.57;;;4.37;;
2486;SDS011;1254;49.144;8.212;2024-02-26T11:35:44;6.13;;;5.70;;
2486;SDS011;1254;49.144;8.212;2024-02-26T11:38:17;7.03;;;6.40;;
2486;SDS011;1254;49.144;8.212;2024-02-26T11:40:45;7.33;;;7.00;;
2486;SDS011;1254;49.144;8.212;2024-02-26T11:43:14;8.07;;;7.67;;
2486;SDS011;1254;49.144;8.212;2024-02-26T11:45:52;7.30;;;6.90;;
2486;SDS011;1254;49.144;8.212;2024-02-26T11:48:25;7.03;;;6.70;;
2486;SDS011;1254;49.144;8.212;2024-02-26T11:50:55;8.10;;;7.80;;
2486;SDS011;1254;49.144;8.212;2024-02-26T11:53:26;7.73;;;7.33;;
2486;SDS011;1254;49.144;8.212;2024-02-26T11:56:13;7.77;;;7.10;;
2486;SDS011;1254;49.144;8.212;2024-02-26T11:58:42;8.63;;;8.33;;
2486;SDS011;1254;49.144;8.212;2024-02-26T12:03:55;9.40;;;9.00;;
2486;SDS011;1254;49.144;8.212;2024-02-26T12:06:25;9.53;;;8.80;;
2486;SDS011;1254;49.144;8.212;2024-02-26T12:08:55;10.60;;;9.70;;
2486;SDS011;1254;49.144;8.212;2024-02-26T12:11:27;9.87;;;8.97;;
2486;SDS011;1254;49.144;8.212;2024-02-26T12:13:55;9.63;;;9.17;;
2486;SDS011;1254;49.144;8.212;2024-02-26T12:16:34;11.13;;;10.53;;
2486;SDS011;1254;49.144;8.212;2024-02-26T12:19:08;9.70;;;9.30;;
2486;SDS011;1254;49.144;8.212;2024-02-26T12:21:37;10.17;;;9.57;;
2486;SDS011;1254;49.144;8.212;2024-02-26T12:24:12;10.80;;;10.30;;
2486;SDS011;1254;49.144;8.212;2024-02-26T12:26:40;9.70;;;9.40;;
2486;SDS011;1254;49.144;8.212;2024-02-26T12:29:08;9.97;;;9.37;;
2486;SDS011;1254;49.144;8.212;2024-02-26T12:31:38;9.80;;;9.40;;
2486;SDS011;1254;49.144;8.212;2024-02-26T12:34:08;9.27;;;8.97;;
2486;SDS011;1254;49.144;8.212;2024-02-26T12:36:36;9.70;;;9.40;;
2486;SDS011;1254;49.144;8.212;2024-02-26T12:39:06;9.40;;;9.00;;
2486;SDS011;1254;49.144;8.212;2024-02-26T12:41:35;9.10;;;8.73;;
2486;SDS011;1254;49.144;8.212;2024-02-26T12:44:04;8.83;;;8.43;;
2486;SDS011;1254;49.144;8.212;2024-02-26T12:46:33;8.70;;;8.30;;
2486;SDS011;1254;49.144;8.212;2024-02-26T12:49:01;9.00;;;8.70;;
2486;SDS011;1254;49.144;8.212;2024-02-26T12:51:31;8.57;;;7.80;;
2486;SDS011;1254;49.144;8.212;2024-02-26T12:53:59;9.40;;;8.90;;
2486;SDS011;1254;49.144;8.212;2024-02-26T12:56:28;8.50;;;8.20;;
2486;SDS011;1254;49.144;8.212;2024-02-26T12:58:56;9.07;;;8.53;;
2486;SDS011;1254;49.144;8.212;2024-02-26T13:01:24;8.57;;;8.27;;
2486;SDS011;1254;49.144;8.212;2024-02-26T13:03:53;8.70;;;8.20;;
2486;SDS011;1254;49.144;8.212;2024-02-26T13:06:21;9.50;;;9.20;;
2486;SDS011;1254;49.144;8.212;2024-02-26T13:08:54;10.43;;;9.93;;
2486;SDS011;1254;49.144;8.212;2024-02-26T13:11:25;11.20;;;10.60;;
2486;SDS011;1254;49.144;8.212;2024-02-26T13:13:55;9.93;;;9.53;;
2486;SDS011;1254;49.144;8.212;2024-02-26T13:16:24;10.20;;;9.80;;
2486;SDS011;1254;49.144;8.212;2024-02-26T13:18:53;10.60;;;9.93;;
2486;SDS011;1254;49.144;8.212;2024-02-26T13:21:22;10.47;;;9.97;;
2486;SDS011;1254;49.144;8.212;2024-02-26T13:23:56;10.40;;;9.90;;
2486;SDS011;1254;49.144;8.212;2024-02-26T13:26:26;9.73;;;9.33;;
2486;SDS011;1254;49.144;8.212;2024-02-26T13:29:00;10.20;;;9.63;;
2486;SDS011;1254;49.144;8.212;2024-02-26T13:31:29;9.57;;;9.07;;
2486;SDS011;1254;49.144;8.212;2024-02-26T13:33:58;9.40;;;9.10;;
2486;SDS011;1254;49.144;8.212;2024-02-26T13:36:26;9.30;;;9.00;;
2486;SDS011;1254;49.144;8.212;2024-02-26T13:38:58;10.23;;;9.80;;
2486;SDS011;1254;49.144;8.212;2024-02-26T13:41:27;11.07;;;10.27;;
2486;SDS011;1254;49.144;8.212;2024-02-26T13:43:55;10.83;;;10.33;;
2486;SDS011;1254;49.144;8.212;2024-02-26T13:46:24;11.20;;;10.70;;
2486;SDS011;1254;49.144;8.212;2024-02-26T13:48:53;12.10;;;11.40;;
2486;SDS011;1254;49.144;8.212;2024-02-26T13:51:21;12.10;;;11.50;;
2486;SDS011;1254;49.144;8.212;2024-02-26T13:53:49;12.43;;;11.93;;
2486;SDS011;1254;49.144;8.212;2024-02-26T13:56:20;12.60;;;12.07;;
2486;SDS011;1254;49.144;8.212;2024-02-26T13:58:48;13.80;;;12.90;;
2486;SDS011;1254;49.144;8.212;2024-02-26T14:01:16;12.93;;;12.40;;
2486;SDS011;1254;49.144;8.212;2024-02-26T14:03:44;12.53;;;12.00;;
2486;SDS011;1254;49.144;8.212;2024-02-26T14:06:13;12.23;;;11.83;;
2486;SDS011;1254;49.144;8.212;2024-02-26T14:08:41;12.67;;;12.17;;
2486;SDS011;1254;49.144;8.212;2024-02-26T14:11:09;12.40;;;11.90;;
2486;SDS011;1254;49.144;8.212;2024-02-26T14:13:39;11.90;;;11.50;;
2486;SDS011;1254;49.144;8.212;2024-02-26T14:16:07;12.10;;;11.50;;
2486;SDS011;1254;49.144;8.212;2024-02-26T14:18:36;12.60;;;12.00;;
2486;SDS011;1254;49.144;8.212;2024-02-26T14:21:05;12.67;;;12.10;;
2486;SDS011;1254;49.144;8.212;2024-02-26T14:23:33;12.90;;;12.40;;
2486;SDS011;1254;49.144;8.212;2024-02-26T14:26:01;13.20;;;12.50;;
2486;SDS011;1254;49.144;8.212;2024-02-26T14:28:30;13.60;;;13.10;;
2486;SDS011;1254;49.144;8.212;2024-02-26T14:31:01;13.50;;;12.97;;
2486;SDS011;1254;49.144;8.212;2024-02-26T14:33:31;13.90;;;13.30;;
2486;SDS011;1254;49.144;8.212;2024-02-26T14:36:00;12.10;;;11.50;;
2486;SDS011;1254;49.144;8.212;2024-02-26T14:38:28;14.40;;;13.70;;
2486;SDS011;1254;49.144;8.212;2024-02-26T14:40:56;14.30;;;13.63;;
2486;SDS011;1254;49.144;8.212;2024-02-26T14:43:25;13.77;;;13.20;;
2486;SDS011;1254;49.144;8.212;2024-02-26T14:45:53;13.63;;;13.00;;
2486;SDS011;1254;49.144;8.212;2024-02-26T14:48:25;13.17;;;12.57;;
2486;SDS011;1254;49.144;8.212;2024-02-26T14:50:54;13.23;;;12.40;;
2486;SDS011;1254;49.144;8.212;2024-02-26T14:53:22;13.37;;;12.77;;
2486;SDS011;1254;49.144;8.212;2024-02-26T14:55:51;12.73;;;12.20;;
2486;SDS011;1254;49.144;8.212;2024-02-26T14:58:19;13.77;;;13.07;;
2486;SDS011;1254;49.144;8.212;2024-02-26T15:00:48;13.33;;;12.27;;
2486;SDS011;1254;49.144;8.212;2024-02-26T15:03:16;13.90;;;13.10;;
2486;SDS011;1254;49.144;8.212;2024-02-26T15:05:45;12.73;;;12.23;;
2486;SDS011;1254;49.144;8.212;2024-02-26T15:08:14;13.20;;;12.70;;
2486;SDS011;1254;49.144;8.212;2024-02-26T15:10:43;13.43;;;12.83;;
2486;SDS011;1254;49.144;8.212;2024-02-26T15:13:14;13.40;;;12.90;;
2486;SDS011;1254;49.144;8.212;2024-02-26T15:15:44;13.70;;;13.17;;
2486;SDS011;1254;49.144;8.212;2024-02-26T15:18:12;14.00;;;13.20;;
2486;SDS011;1254;49.144;8.212;2024-02-26T15:20:42;14.20;;;13.60;;
2486;SDS011;1254;49.144;8.212;2024-02-26T15:23:12;14.10;;;13.50;;
2486;SDS011;1254;49.144;8.212;2024-02-26T15:25:40;14.17;;;13.53;;
2486;SDS011;1254;49.144;8.212;2024-02-26T15:28:08;14.37;;;13.60;;